createdAt,value
2017-04-14T00:00:26.491Z,91.84
2017-04-14T00:01:26.499Z,91.87
2017-04-14T00:02:21.526Z,91.96
2017-04-14T00:03:16.580Z,91.96
2017-04-14T00:04:16.541Z,91.97
2017-04-14T00:05:11.701Z,91.99
2017-04-14T00:06:11.602Z,92.03
2017-04-14T00:07:11.654Z,92.08
2017-04-14T00:08:11.650Z,92.07
2017-04-14T00:09:05.707Z,92.06
2017-04-14T00:10:06.741Z,92.13
2017-04-14T00:11:07.815Z,92.16
2017-04-14T00:12:07.793Z,92.16
2017-04-14T00:13:07.782Z,92.21
2017-04-14T00:14:02.868Z,92.16
2017-04-14T00:14:56.871Z,92.20
2017-04-14T00:15:57.010Z,92.17
2017-04-14T00:16:51.895Z,92.19
2017-04-14T00:17:51.947Z,92.18
2017-04-14T00:18:45.949Z,92.18
2017-04-14T00:19:45.987Z,92.17
2017-04-14T00:20:40.976Z,92.14
2017-04-14T00:21:36.063Z,92.13
2017-04-14T00:22:36.118Z,92.14
2017-04-14T00:23:31.090Z,92.14
2017-04-14T00:24:26.151Z,92.14
2017-04-14T00:25:27.221Z,92.17
2017-04-14T00:26:27.168Z,92.16
2017-04-14T00:27:27.183Z,92.19
2017-04-14T00:28:22.275Z,92.19
2017-04-14T00:29:16.248Z,92.17
2017-04-14T00:30:16.293Z,92.20
2017-04-14T00:31:11.282Z,92.19
2017-04-14T00:32:11.400Z,92.18
2017-04-14T00:33:11.367Z,92.17
2017-04-14T00:34:11.407Z,92.12
2017-04-14T00:35:05.424Z,92.11
2017-04-14T00:36:05.419Z,92.13
2017-04-14T00:37:00.471Z,92.12
2017-04-14T00:38:00.479Z,92.11
2017-04-14T00:39:00.521Z,92.12
2017-04-14T00:40:00.525Z,92.12
2017-04-14T00:41:00.567Z,92.11
2017-04-14T00:42:00.574Z,92.11
2017-04-14T00:42:54.629Z,92.15
2017-04-14T00:43:54.690Z,92.10
2017-04-14T00:44:49.686Z,92.09
2017-04-14T00:45:49.761Z,92.08
2017-04-14T00:46:43.705Z,92.14
2017-04-14T00:47:43.752Z,92.20
2017-04-14T00:48:38.781Z,92.19
2017-04-14T00:49:33.802Z,92.22
2017-04-14T00:50:33.834Z,92.23
2017-04-14T00:51:28.870Z,92.22
2017-04-14T00:52:23.912Z,92.24
2017-04-14T00:53:24.905Z,92.26
2017-04-14T00:54:24.888Z,92.25
2017-04-14T00:55:24.949Z,92.24
2017-04-14T00:56:19.992Z,92.24
2017-04-14T00:57:14.018Z,92.25
2017-04-14T00:58:14.035Z,92.28
2017-04-14T00:59:09.083Z,92.28
2017-04-14T01:00:09.285Z,92.33
2017-04-14T01:01:03.101Z,92.33
2017-04-14T01:02:04.127Z,92.32
2017-04-14T01:03:05.256Z,92.39
2017-04-14T01:04:00.193Z,92.36
2017-04-14T01:04:54.182Z,92.37
2017-04-14T01:05:55.582Z,92.36
2017-04-14T01:06:55.245Z,92.40
2017-04-14T01:07:55.306Z,92.40
2017-04-14T01:08:50.342Z,92.37
2017-04-14T01:09:44.364Z,92.40
2017-04-14T01:10:44.349Z,92.40
2017-04-14T01:11:39.385Z,92.39
2017-04-14T01:12:39.387Z,92.38
2017-04-14T01:13:33.486Z,92.37
2017-04-14T01:14:33.475Z,92.37
2017-04-14T01:15:28.528Z,92.39
2017-04-14T01:16:23.554Z,92.37
2017-04-14T01:17:24.592Z,92.43
2017-04-14T01:18:24.574Z,92.48
2017-04-14T01:19:19.613Z,92.48
2017-04-14T01:20:25.699Z,92.48
2017-04-14T01:21:20.655Z,92.47
2017-04-14T01:22:14.698Z,92.47
2017-04-14T01:23:14.740Z,92.51
2017-04-14T01:24:14.741Z,92.56
2017-04-14T01:25:14.787Z,92.57
2017-04-14T01:26:15.811Z,92.58
2017-04-14T01:27:16.790Z,92.63
2017-04-14T01:28:10.883Z,92.63
2017-04-14T01:29:10.920Z,92.67
2017-04-14T01:30:05.881Z,92.67
2017-04-14T01:31:00.891Z,92.72
2017-04-14T01:32:00.959Z,92.77
2017-04-14T01:32:55.947Z,92.82
2017-04-14T01:33:50.978Z,92.83
2017-04-14T01:34:50.991Z,92.88
2017-04-14T01:35:46.037Z,92.88
2017-04-14T01:36:41.059Z,92.92
2017-04-14T01:37:42.080Z,92.92
2017-04-14T01:38:42.105Z,92.94
2017-04-14T01:39:42.124Z,92.96
2017-04-14T01:40:42.172Z,92.96
2017-04-14T01:41:43.218Z,92.96
2017-04-14T01:42:44.204Z,92.96
2017-04-14T01:43:38.257Z,92.98
2017-04-14T01:44:38.265Z,92.97
2017-04-14T01:45:33.315Z,92.97
2017-04-14T01:46:28.295Z,92.97
2017-04-14T01:47:28.341Z,93.01
2017-04-14T01:48:23.384Z,93.00
2017-04-14T01:49:18.395Z,92.96
2017-04-14T01:50:18.411Z,93.01
2017-04-14T01:51:13.469Z,93.01
2017-04-14T01:52:08.456Z,93.01
2017-04-14T01:53:09.525Z,92.99
2017-04-14T01:54:09.563Z,93.02
2017-04-14T01:55:09.550Z,93.04
2017-04-14T01:56:04.583Z,93.01
2017-04-14T01:57:04.591Z,93.04
2017-04-14T01:58:04.667Z,93.06
2017-04-14T01:58:58.680Z,93.04
2017-04-14T01:59:59.682Z,93.08
2017-04-14T02:00:59.648Z,93.10
2017-04-14T02:01:59.696Z,93.11
2017-04-14T02:02:54.758Z,93.14
2017-04-14T02:03:48.798Z,93.17
2017-04-14T02:04:48.828Z,93.20
2017-04-14T02:05:43.885Z,93.22
2017-04-14T02:06:38.871Z,93.20
2017-04-14T02:07:39.916Z,93.24
2017-04-14T02:08:39.901Z,93.24
2017-04-14T02:09:39.898Z,93.25
2017-04-14T02:10:34.939Z,93.27
2017-04-14T02:11:35.018Z,93.30
2017-04-14T02:12:35.070Z,93.27
2017-04-14T02:13:29.027Z,93.29
2017-04-14T02:14:29.084Z,93.30
2017-04-14T02:15:24.112Z,93.28
2017-04-14T02:16:24.075Z,93.28
2017-04-14T02:17:18.197Z,93.28
2017-04-14T02:18:18.156Z,93.27
2017-04-14T02:19:13.192Z,93.21
2017-04-14T02:20:13.175Z,93.24
2017-04-14T02:21:13.234Z,93.24
2017-04-14T02:22:13.272Z,93.19
2017-04-14T02:23:07.304Z,93.23
2017-04-14T02:24:07.257Z,93.23
2017-04-14T02:25:02.341Z,93.19
2017-04-14T02:26:02.382Z,93.20
2017-04-14T02:27:02.379Z,93.19
2017-04-14T02:28:02.411Z,93.18
2017-04-14T02:29:02.472Z,93.20
2017-04-14T02:30:02.456Z,93.18
2017-04-14T02:30:56.483Z,93.18
2017-04-14T02:31:56.497Z,93.22
2017-04-14T02:32:51.550Z,93.22
2017-04-14T02:33:51.675Z,93.22
2017-04-14T02:34:51.562Z,93.26
2017-04-14T02:35:51.598Z,93.25
2017-04-14T02:36:45.655Z,93.27
2017-04-14T02:37:45.648Z,93.29
2017-04-14T02:38:40.676Z,93.29
2017-04-14T02:39:40.709Z,93.29
2017-04-14T02:40:34.758Z,93.29
2017-04-14T02:41:34.753Z,93.33
2017-04-14T02:42:29.769Z,93.33
2017-04-14T02:43:24.818Z,93.36
2017-04-14T02:44:24.879Z,93.33
2017-04-14T02:45:19.865Z,93.36
2017-04-14T02:46:14.981Z,93.37
2017-04-14T02:47:20.899Z,93.37
2017-04-14T02:48:14.964Z,93.38
2017-04-14T02:49:14.976Z,93.42
2017-04-14T02:50:10.050Z,93.43
2017-04-14T02:51:10.002Z,93.43
2017-04-14T02:52:04.101Z,93.43
2017-04-14T02:53:04.085Z,93.41
2017-04-14T02:53:59.099Z,93.46
2017-04-14T02:54:54.178Z,93.47
2017-04-14T02:55:54.187Z,93.49
2017-04-14T02:56:49.180Z,93.51
2017-04-14T02:57:44.216Z,93.51
2017-04-14T02:58:44.241Z,93.53
2017-04-14T02:59:39.292Z,93.53
2017-04-14T03:00:34.319Z,93.55
2017-04-14T03:01:35.306Z,93.57
2017-04-14T03:02:35.347Z,93.59
2017-04-14T03:03:35.396Z,93.58
2017-04-14T03:04:30.412Z,93.57
2017-04-14T03:05:24.422Z,93.56
2017-04-14T03:06:24.486Z,93.60
2017-04-14T03:07:19.520Z,93.60
2017-04-14T03:08:19.525Z,93.59
2017-04-14T03:09:13.572Z,93.59
2017-04-14T03:10:13.559Z,93.63
2017-04-14T03:11:08.577Z,93.63
2017-04-14T03:12:03.579Z,93.64
2017-04-14T03:13:03.598Z,93.64
2017-04-14T03:13:58.691Z,93.62
2017-04-14T03:14:53.712Z,93.66
2017-04-14T03:15:54.713Z,93.66
2017-04-14T03:16:54.673Z,93.68
2017-04-14T03:17:54.788Z,93.69
2017-04-14T03:18:54.789Z,93.69
2017-04-14T03:19:55.977Z,93.68
2017-04-14T03:20:56.813Z,93.70
2017-04-14T03:21:50.845Z,93.73
2017-04-14T03:22:50.857Z,93.73
2017-04-14T03:23:45.862Z,93.74
2017-04-14T03:24:40.878Z,93.75
2017-04-14T03:25:40.906Z,93.74
2017-04-14T03:26:36.013Z,93.73
2017-04-14T03:27:31.024Z,93.75
2017-04-14T03:28:31.009Z,93.75
2017-04-14T03:29:26.080Z,93.79
2017-04-14T03:30:21.087Z,93.77
2017-04-14T03:31:22.209Z,93.80
2017-04-14T03:32:22.134Z,93.80
2017-04-14T03:33:22.193Z,93.83
2017-04-14T03:34:17.169Z,93.85
2017-04-14T03:35:11.224Z,93.85
2017-04-14T03:36:11.236Z,93.78
2017-04-14T03:37:06.462Z,93.81
2017-04-14T03:38:06.296Z,93.82
2017-04-14T03:39:00.317Z,93.84
2017-04-14T03:40:01.347Z,93.86
2017-04-14T03:41:02.676Z,93.86
2017-04-14T03:41:57.418Z,93.85
2017-04-14T03:42:51.404Z,93.88
2017-04-14T03:43:51.430Z,93.89
2017-04-14T03:44:46.468Z,93.88
2017-04-14T03:45:46.511Z,93.85
2017-04-14T03:46:40.499Z,93.82
2017-04-14T03:47:41.544Z,93.85
2017-04-14T03:48:41.591Z,93.83
2017-04-14T03:49:41.558Z,93.85
2017-04-14T03:50:41.582Z,93.88
2017-04-14T03:51:36.606Z,93.88
2017-04-14T03:52:36.706Z,93.90
2017-04-14T03:53:30.693Z,93.92
2017-04-14T03:54:31.998Z,93.92
2017-04-14T03:55:31.719Z,93.96
2017-04-14T03:56:32.149Z,93.92
2017-04-14T03:57:26.788Z,93.91
2017-04-14T03:58:20.836Z,93.90
2017-04-14T03:59:20.841Z,93.90
2017-04-14T04:00:15.886Z,93.94
2017-04-14T04:01:10.907Z,93.94
2017-04-14T04:02:11.889Z,93.96
2017-04-14T04:03:11.999Z,93.94
2017-04-14T04:04:11.973Z,93.93
2017-04-14T04:05:06.988Z,93.96
2017-04-14T04:06:01.073Z,93.96
2017-04-14T04:07:01.006Z,93.96
2017-04-14T04:07:56.080Z,93.91
2017-04-14T04:08:56.121Z,93.92
2017-04-14T04:09:56.088Z,93.94
2017-04-14T04:10:56.186Z,93.93
2017-04-14T04:11:51.197Z,93.99
2017-04-14T04:12:50.224Z,93.99
2017-04-14T04:13:45.202Z,94.00
2017-04-14T04:14:40.275Z,93.99
2017-04-14T04:15:40.306Z,93.98
2017-04-14T04:16:35.298Z,94.02
2017-04-14T04:17:35.368Z,93.98
2017-04-14T04:18:35.371Z,94.02
2017-04-14T04:19:35.391Z,94.00
2017-04-14T04:20:35.371Z,94.02
2017-04-14T04:21:30.423Z,94.05
2017-04-14T04:22:31.436Z,94.02
2017-04-14T04:23:32.487Z,94.07
2017-04-14T04:24:27.522Z,94.05
2017-04-14T04:25:21.460Z,94.06
2017-04-14T04:26:21.505Z,94.06
2017-04-14T04:27:16.590Z,94.07
2017-04-14T04:28:11.641Z,94.11
2017-04-14T04:29:11.684Z,94.11
2017-04-14T04:30:06.715Z,94.09
2017-04-14T04:31:06.693Z,94.12
2017-04-14T04:32:07.692Z,94.12
2017-04-14T04:33:08.716Z,94.12
2017-04-14T04:34:08.783Z,94.11
2017-04-14T04:35:03.815Z,94.12
2017-04-14T04:36:03.805Z,94.17
2017-04-14T04:36:58.818Z,94.17
2017-04-14T04:37:58.869Z,94.17
2017-04-14T04:38:59.894Z,94.20
2017-04-14T04:40:00.913Z,94.19
2017-04-14T04:41:00.901Z,94.21
2017-04-14T04:41:55.929Z,94.23
2017-04-14T04:42:55.948Z,94.26
2017-04-14T04:43:51.016Z,94.23
2017-04-14T04:44:46.052Z,94.23
2017-04-14T04:45:40.082Z,94.25
2017-04-14T04:46:40.132Z,94.26
2017-04-14T04:47:35.101Z,94.29
2017-04-14T04:48:30.165Z,94.28
2017-04-14T04:49:30.183Z,94.30
2017-04-14T04:50:25.203Z,94.30
2017-04-14T04:51:20.285Z,94.30
2017-04-14T04:52:14.313Z,94.33
2017-04-14T04:53:14.295Z,94.30
2017-04-14T04:54:09.323Z,94.27
2017-04-14T04:55:09.373Z,94.33
2017-04-14T04:56:09.386Z,94.33
2017-04-14T04:57:09.383Z,94.30
2017-04-14T04:58:03.720Z,94.35
2017-04-14T04:59:03.442Z,94.31
2017-04-14T04:59:58.427Z,94.33
2017-04-14T05:00:53.493Z,94.34
2017-04-14T05:01:53.537Z,94.35
2017-04-14T05:02:53.515Z,94.35
2017-04-14T05:03:47.652Z,94.35
2017-04-14T05:04:47.602Z,94.38
2017-04-14T05:05:42.602Z,94.42
2017-04-14T05:06:37.682Z,94.42
2017-04-14T05:07:31.691Z,94.41
2017-04-14T05:08:31.695Z,94.46
2017-04-14T05:09:26.742Z,94.46
2017-04-14T05:10:26.790Z,94.46
2017-04-14T05:11:26.797Z,94.47
2017-04-14T05:12:26.806Z,94.48
2017-04-14T05:13:20.851Z,94.52
2017-04-14T05:14:20.880Z,94.55
2017-04-14T05:15:16.351Z,94.56
2017-04-14T05:16:10.951Z,94.57
2017-04-14T05:17:04.973Z,94.62
2017-04-14T05:18:04.943Z,94.63
2017-04-14T05:19:00.012Z,94.65
2017-04-14T05:19:55.063Z,94.67
2017-04-14T05:20:55.285Z,94.68
2017-04-14T05:21:50.089Z,94.69
2017-04-14T05:22:50.200Z,94.73
2017-04-14T05:23:51.095Z,94.75
2017-04-14T05:24:52.179Z,94.74
2017-04-14T05:25:46.187Z,94.69
2017-04-14T05:26:46.285Z,94.75
2017-04-14T05:27:41.265Z,94.75
2017-04-14T05:28:36.287Z,94.78
2017-04-14T05:29:36.293Z,94.77
2017-04-14T05:30:42.313Z,94.87
2017-04-14T05:31:37.350Z,94.90
2017-04-14T05:32:31.412Z,94.98
2017-04-14T05:33:32.408Z,95.05
2017-04-14T05:34:27.447Z,95.23
2017-04-14T05:35:27.499Z,95.34
2017-04-14T05:36:27.549Z,95.41
2017-04-14T05:37:27.528Z,95.42
2017-04-14T05:38:33.691Z,95.49
2017-04-14T05:39:28.611Z,95.43
2017-04-14T05:40:22.596Z,95.45
2017-04-14T05:41:17.660Z,95.49
2017-04-14T05:42:18.742Z,95.45
2017-04-14T05:43:07.741Z,95.57
2017-04-14T05:43:55.801Z,95.61
2017-04-14T05:44:49.791Z,95.69
2017-04-14T05:45:37.793Z,95.66
2017-04-14T05:46:31.874Z,95.69
2017-04-14T05:47:25.870Z,95.72
2017-04-14T05:48:14.879Z,95.67
2017-04-14T05:49:08.972Z,95.61
2017-04-14T05:49:58.027Z,95.31
2017-04-14T05:50:57.978Z,95.09
2017-04-14T05:51:53.069Z,94.97
2017-04-14T05:52:48.132Z,94.81
2017-04-14T05:53:42.177Z,94.33
2017-04-14T05:54:48.185Z,93.90
2017-04-14T05:55:42.129Z,93.30
2017-04-14T05:56:43.251Z,92.63
2017-04-14T05:57:38.252Z,91.86
2017-04-14T05:58:38.287Z,90.74
2017-04-14T05:59:27.289Z,89.54
2017-04-14T06:00:27.721Z,89.01
2017-04-14T06:01:22.391Z,88.14
2017-04-14T06:02:22.457Z,87.53
2017-04-14T06:03:22.430Z,87.13
2017-04-14T06:04:16.447Z,86.50
2017-04-14T06:05:17.898Z,85.99
2017-04-14T06:06:12.869Z,85.32
2017-04-14T06:07:06.601Z,83.68
2017-04-14T06:07:55.622Z,82.83
2017-04-14T06:08:49.705Z,82.86
2017-04-14T06:09:43.692Z,82.46
2017-04-14T06:10:37.780Z,82.31
2017-04-14T06:11:33.435Z,82.47
2017-04-14T06:12:27.834Z,82.21
2017-04-14T06:13:21.943Z,82.05
2017-04-14T06:14:10.948Z,81.02
2017-04-14T06:15:11.881Z,80.51
2017-04-14T06:15:59.943Z,80.13
2017-04-14T06:16:54.301Z,79.51
2017-04-14T06:17:49.032Z,79.49
2017-04-14T06:18:38.081Z,79.48
2017-04-14T06:19:38.094Z,79.55
2017-04-14T06:20:38.172Z,79.26
2017-04-14T06:21:38.230Z,79.42
2017-04-14T06:22:38.486Z,78.34
2017-04-14T06:23:32.302Z,77.43
2017-04-14T06:24:21.297Z,76.37
2017-04-14T06:25:09.371Z,75.42
2017-04-14T06:25:58.434Z,75.93
2017-04-14T06:26:52.409Z,75.88
2017-04-14T06:27:41.939Z,76.60
2017-04-14T06:28:41.521Z,76.74
2017-04-14T06:29:29.540Z,75.93
2017-04-14T06:30:19.004Z,75.56
2017-04-14T06:31:19.626Z,74.33
2017-04-14T06:32:07.699Z,74.54
2017-04-14T06:32:56.963Z,74.56
2017-04-14T06:33:44.789Z,74.16
2017-04-14T06:34:39.817Z,74.67
2017-04-14T06:35:33.858Z,74.37
2017-04-14T06:36:28.884Z,74.05
2017-04-14T06:37:23.938Z,74.02
2017-04-14T06:38:13.265Z,73.53
2017-04-14T06:39:12.975Z,72.10
2017-04-14T06:40:13.065Z,71.11
2017-04-14T06:41:13.076Z,70.58
2017-04-14T06:42:08.122Z,70.55
2017-04-14T06:43:03.172Z,69.78
2017-04-14T06:43:57.666Z,69.75
2017-04-14T06:44:51.249Z,68.98
2017-04-14T06:45:46.299Z,69.54
2017-04-14T06:46:41.297Z,68.83
2017-04-14T06:47:41.357Z,69.37
2017-04-14T06:48:36.417Z,68.54
2017-04-14T06:49:30.717Z,67.11
2017-04-14T06:50:24.455Z,66.95
2017-04-14T06:51:18.507Z,67.15
2017-04-14T06:52:07.599Z,67.42
2017-04-14T06:53:01.603Z,69.34
2017-04-14T06:53:55.657Z,70.87
2017-04-14T06:54:44.991Z,71.89
2017-04-14T06:55:33.713Z,70.94
2017-04-14T06:56:22.848Z,70.46
2017-04-14T06:57:10.857Z,71.55
2017-04-14T06:58:04.896Z,69.35
2017-04-14T06:58:59.915Z,67.72
2017-04-14T06:59:55.275Z,67.38
2017-04-14T07:00:54.998Z,67.56
2017-04-14T07:01:44.052Z,67.10
2017-04-14T07:02:38.106Z,68.87
2017-04-14T07:03:32.156Z,68.61
2017-04-14T07:04:26.218Z,67.87
2017-04-14T07:05:21.787Z,68.09
2017-04-14T07:06:16.291Z,67.00
2017-04-14T07:07:11.284Z,68.48
2017-04-14T07:08:05.352Z,70.74
2017-04-14T07:08:53.410Z,70.89
2017-04-14T07:09:48.489Z,72.69
2017-04-14T07:10:42.517Z,73.66
2017-04-14T07:11:36.482Z,75.06
2017-04-14T07:12:36.604Z,76.90
2017-04-14T07:13:36.607Z,77.42
2017-04-14T07:14:31.700Z,78.67
2017-04-14T07:15:25.648Z,79.17
2017-04-14T07:16:25.777Z,80.17
2017-04-14T07:17:20.806Z,80.68
2017-04-14T07:18:09.811Z,81.02
2017-04-14T07:18:58.951Z,81.18
2017-04-14T07:19:52.916Z,81.55
2017-04-14T07:20:52.969Z,81.98
2017-04-14T07:21:48.016Z,82.33
2017-04-14T07:22:48.019Z,82.67
2017-04-14T07:23:48.094Z,82.87
2017-04-14T07:24:42.173Z,82.64
2017-04-14T07:25:30.142Z,82.40
2017-04-14T07:26:30.204Z,82.50
2017-04-14T07:27:19.275Z,82.87
2017-04-14T07:28:08.298Z,82.87
2017-04-14T07:29:03.309Z,82.45
2017-04-14T07:29:58.413Z,82.39
2017-04-14T07:30:52.774Z,82.24
2017-04-14T07:31:52.391Z,82.24
2017-04-14T07:32:41.580Z,82.44
2017-04-14T07:33:29.549Z,82.52
2017-04-14T07:34:29.509Z,82.44
2017-04-14T07:35:24.595Z,82.67
2017-04-14T07:36:13.662Z,82.47
2017-04-14T07:37:13.714Z,82.10
2017-04-14T07:38:02.718Z,82.08
2017-04-14T07:38:57.781Z,82.13
2017-04-14T07:39:46.812Z,82.22
2017-04-14T07:40:40.858Z,81.73
2017-04-14T07:41:28.923Z,80.76
2017-04-14T07:42:17.933Z,80.92
2017-04-14T07:43:11.996Z,80.95
2017-04-14T07:44:01.044Z,81.31
2017-04-14T07:45:01.080Z,80.99
2017-04-14T07:45:50.130Z,80.94
2017-04-14T07:46:39.201Z,81.01
2017-04-14T07:47:34.219Z,80.89
2017-04-14T07:48:34.517Z,81.16
2017-04-14T07:49:23.241Z,81.45
2017-04-14T07:50:12.332Z,81.45
2017-04-14T07:51:06.383Z,81.53
2017-04-14T07:51:54.412Z,81.59
2017-04-14T07:52:48.444Z,82.02
2017-04-14T07:53:42.486Z,82.09
2017-04-14T07:54:36.514Z,81.71
2017-04-14T07:55:25.548Z,81.66
2017-04-14T07:56:19.617Z,81.91
2017-04-14T07:57:13.715Z,82.12
2017-04-14T07:58:08.738Z,82.08
2017-04-14T07:59:09.802Z,82.14
2017-04-14T08:00:04.801Z,81.96
2017-04-14T08:00:54.190Z,81.27
2017-04-14T08:01:53.864Z,81.39
2017-04-14T08:02:47.869Z,81.74
2017-04-14T08:03:42.940Z,81.83
2017-04-14T08:04:38.015Z,82.04
2017-04-14T08:05:33.020Z,82.04
2017-04-14T08:06:33.067Z,81.67
2017-04-14T08:07:33.064Z,81.46
2017-04-14T08:08:21.149Z,81.77
2017-04-14T08:09:21.216Z,81.99
2017-04-14T08:10:16.217Z,82.34
2017-04-14T08:11:11.284Z,81.85
2017-04-14T08:12:11.354Z,81.63
2017-04-14T08:13:06.651Z,81.45
2017-04-14T08:14:00.389Z,81.62
2017-04-14T08:14:54.401Z,81.38
2017-04-14T08:15:42.459Z,80.94
2017-04-14T08:16:37.470Z,81.14
2017-04-14T08:17:31.515Z,81.31
2017-04-14T08:18:20.614Z,81.69
2017-04-14T08:19:15.619Z,81.96
2017-04-14T08:20:09.696Z,82.06
2017-04-14T08:21:09.835Z,82.10
2017-04-14T08:21:58.741Z,82.10
2017-04-14T08:22:52.766Z,81.75
2017-04-14T08:23:40.817Z,81.51
2017-04-14T08:24:34.872Z,81.18
2017-04-14T08:25:23.288Z,80.77
2017-04-14T08:26:22.954Z,80.91
2017-04-14T08:27:17.954Z,81.48
2017-04-14T08:28:06.004Z,81.39
2017-04-14T08:29:06.327Z,81.34
2017-04-14T08:30:00.093Z,81.30
2017-04-14T08:30:54.489Z,81.27
2017-04-14T08:31:43.182Z,81.15
2017-04-14T08:32:37.192Z,81.05
2017-04-14T08:33:31.262Z,81.11
2017-04-14T08:34:26.279Z,81.35
2017-04-14T08:35:15.381Z,81.34
2017-04-14T08:36:09.387Z,81.24
2017-04-14T08:36:58.675Z,81.03
2017-04-14T08:37:47.490Z,80.95
2017-04-14T08:38:35.541Z,80.89
2017-04-14T08:39:29.575Z,80.68
2017-04-14T08:40:24.068Z,80.68
2017-04-14T08:41:12.730Z,80.48
2017-04-14T08:42:12.695Z,80.44
2017-04-14T08:43:06.755Z,80.37
2017-04-14T08:44:00.777Z,80.20
2017-04-14T08:44:54.802Z,80.05
2017-04-14T08:45:48.924Z,80.18
2017-04-14T08:46:37.927Z,79.77
2017-04-14T08:47:31.976Z,80.01
2017-04-14T08:48:25.995Z,79.94
2017-04-14T08:49:21.009Z,79.38
2017-04-14T08:50:15.086Z,79.61
2017-04-14T08:51:10.132Z,80.37
2017-04-14T08:52:10.152Z,80.62
2017-04-14T08:52:59.236Z,80.14
2017-04-14T08:53:53.228Z,79.63
2017-04-14T08:54:42.277Z,79.91
2017-04-14T08:55:36.308Z,79.85
2017-04-14T08:56:25.381Z,80.19
2017-04-14T08:57:19.405Z,80.13
2017-04-14T08:58:13.512Z,79.92
2017-04-14T08:59:02.482Z,79.72
2017-04-14T08:59:51.513Z,79.90
2017-04-14T09:00:40.590Z,79.90
2017-04-14T09:01:35.591Z,79.98
2017-04-14T09:02:29.685Z,79.53
2017-04-14T09:03:23.705Z,79.78
2017-04-14T09:04:17.751Z,79.92
2017-04-14T09:05:12.760Z,79.96
2017-04-14T09:06:00.813Z,80.28
2017-04-14T09:07:00.880Z,80.48
2017-04-14T09:07:49.917Z,80.39
2017-04-14T09:08:38.185Z,80.19
2017-04-14T09:09:37.985Z,80.58
2017-04-14T09:10:26.960Z,80.95
2017-04-14T09:11:21.062Z,80.39
2017-04-14T09:12:09.107Z,80.73
2017-04-14T09:12:57.165Z,80.69
2017-04-14T09:13:51.206Z,80.48
2017-04-14T09:14:51.243Z,81.20
2017-04-14T09:15:45.291Z,81.34
2017-04-14T09:16:46.330Z,81.33
2017-04-14T09:17:46.383Z,81.17
2017-04-14T09:18:46.389Z,81.56
2017-04-14T09:19:35.463Z,81.56
2017-04-14T09:20:35.481Z,81.46
2017-04-14T09:21:29.485Z,81.61
2017-04-14T09:22:29.495Z,81.40
2017-04-14T09:23:18.619Z,81.47
2017-04-14T09:24:12.612Z,81.34
2017-04-14T09:25:06.920Z,81.31
2017-04-14T09:25:56.127Z,81.23
2017-04-14T09:26:49.721Z,80.92
2017-04-14T09:27:43.779Z,80.88
2017-04-14T09:28:44.803Z,81.39
2017-04-14T09:29:38.885Z,81.02
2017-04-14T09:30:33.921Z,81.03
2017-04-14T09:31:22.958Z,81.03
2017-04-14T09:32:16.992Z,80.53
2017-04-14T09:33:05.064Z,80.71
2017-04-14T09:34:00.088Z,80.85
2017-04-14T09:35:01.130Z,81.50
2017-04-14T09:36:01.168Z,80.90
2017-04-14T09:36:55.191Z,80.86
2017-04-14T09:37:50.198Z,81.44
2017-04-14T09:38:44.292Z,81.47
2017-04-14T09:39:38.313Z,81.39
2017-04-14T09:40:33.338Z,81.80
2017-04-14T09:41:27.424Z,82.16
2017-04-14T09:42:16.453Z,82.21
2017-04-14T09:43:05.476Z,82.27
2017-04-14T09:44:00.523Z,82.30
2017-04-14T09:44:49.530Z,82.06
2017-04-14T09:45:43.596Z,81.31
2017-04-14T09:46:38.679Z,81.07
2017-04-14T09:47:38.711Z,81.25
2017-04-14T09:48:33.699Z,81.34
2017-04-14T09:49:22.776Z,81.02
2017-04-14T09:50:16.779Z,81.03
2017-04-14T09:51:16.820Z,81.07
2017-04-14T09:52:10.894Z,81.34
2017-04-14T09:53:10.910Z,81.44
2017-04-14T09:53:59.944Z,81.45
2017-04-14T09:54:53.983Z,81.32
2017-04-14T09:55:49.022Z,81.32
2017-04-14T09:56:37.151Z,80.88
2017-04-14T09:57:31.160Z,80.86
2017-04-14T09:58:26.175Z,81.01
2017-04-14T09:59:26.187Z,80.90
2017-04-14T10:00:21.224Z,80.92
2017-04-14T10:01:16.254Z,81.11
2017-04-14T10:02:10.332Z,81.23
2017-04-14T10:03:04.401Z,81.21
2017-04-14T10:03:53.387Z,81.08
2017-04-14T10:04:53.410Z,80.71
2017-04-14T10:05:42.487Z,80.68
2017-04-14T10:06:36.496Z,80.83
2017-04-14T10:07:25.504Z,80.55
2017-04-14T10:08:14.641Z,80.53
2017-04-14T10:09:08.679Z,80.53
2017-04-14T10:10:02.687Z,81.02
2017-04-14T10:10:57.087Z,81.31
2017-04-14T10:11:56.767Z,81.33
2017-04-14T10:12:56.800Z,81.57
2017-04-14T10:13:56.893Z,81.96
2017-04-14T10:14:51.870Z,81.71
2017-04-14T10:15:39.906Z,81.69
2017-04-14T10:16:28.933Z,81.53
2017-04-14T10:17:28.958Z,80.95
2017-04-14T10:18:18.056Z,81.10
2017-04-14T10:19:07.137Z,81.35
2017-04-14T10:20:01.120Z,81.26
2017-04-14T10:20:49.185Z,80.80
2017-04-14T10:21:43.225Z,80.61
2017-04-14T10:22:43.188Z,80.89
2017-04-14T10:23:37.298Z,80.85
2017-04-14T10:24:31.319Z,80.93
2017-04-14T10:25:26.722Z,81.06
2017-04-14T10:26:20.411Z,81.16
2017-04-14T10:27:09.472Z,81.02
2017-04-14T10:28:10.481Z,80.65
2017-04-14T10:29:10.504Z,80.03
2017-04-14T10:30:04.597Z,80.33
2017-04-14T10:30:59.578Z,79.84
2017-04-14T10:31:59.631Z,79.95
2017-04-14T10:32:47.693Z,80.05
2017-04-14T10:33:47.730Z,80.28
2017-04-14T10:34:41.726Z,79.82
2017-04-14T10:35:42.813Z,80.18
2017-04-14T10:36:43.776Z,80.68
2017-04-14T10:37:37.889Z,80.73
2017-04-14T10:38:26.885Z,80.14
2017-04-14T10:39:20.996Z,80.05
2017-04-14T10:40:09.993Z,80.06
2017-04-14T10:41:04.009Z,79.49
2017-04-14T10:41:53.091Z,79.26
2017-04-14T10:42:41.103Z,79.34
2017-04-14T10:43:36.175Z,78.89
2017-04-14T10:44:24.219Z,78.92
2017-04-14T10:45:12.285Z,79.29
2017-04-14T10:46:07.321Z,79.50
2017-04-14T10:47:01.311Z,78.80
2017-04-14T10:47:50.406Z,78.53
2017-04-14T10:48:39.410Z,78.38
2017-04-14T10:49:27.497Z,78.38
2017-04-14T10:50:21.501Z,78.62
2017-04-14T10:51:09.641Z,78.28
2017-04-14T10:52:09.600Z,77.77
2017-04-14T10:52:57.647Z,77.42
2017-04-14T10:53:51.691Z,77.73
2017-04-14T10:54:46.715Z,77.83
2017-04-14T10:55:35.762Z,77.07
2017-04-14T10:56:29.805Z,77.38
2017-04-14T10:57:30.799Z,77.96
2017-04-14T10:58:24.866Z,77.23
2017-04-14T10:59:19.886Z,77.26
2017-04-14T11:00:14.940Z,77.49
2017-04-14T11:01:03.993Z,77.37
2017-04-14T11:02:04.092Z,77.20
2017-04-14T11:02:53.103Z,77.49
2017-04-14T11:03:48.130Z,76.76
2017-04-14T11:04:37.175Z,76.44
2017-04-14T11:05:37.220Z,77.01
2017-04-14T11:06:26.301Z,76.55
2017-04-14T11:07:15.305Z,75.55
2017-04-14T11:08:10.380Z,75.82
2017-04-14T11:08:58.413Z,76.42
2017-04-14T11:09:52.438Z,76.57
2017-04-14T11:10:46.464Z,76.04
2017-04-14T11:11:35.547Z,76.24
2017-04-14T11:12:23.635Z,75.55
2017-04-14T11:13:17.610Z,75.46
2017-04-14T11:14:06.661Z,75.94
2017-04-14T11:15:01.687Z,76.34
2017-04-14T11:15:49.779Z,76.57
2017-04-14T11:16:43.813Z,76.35
2017-04-14T11:17:37.891Z,76.08
2017-04-14T11:18:26.879Z,76.45
2017-04-14T11:19:14.903Z,75.89
2017-04-14T11:20:08.974Z,75.64
2017-04-14T11:21:03.023Z,76.01
2017-04-14T11:21:52.109Z,76.92
2017-04-14T11:22:41.089Z,76.42
2017-04-14T11:23:36.171Z,75.93
2017-04-14T11:24:25.193Z,76.24
2017-04-14T11:25:20.201Z,76.22
2017-04-14T11:26:14.303Z,75.46
2017-04-14T11:27:02.286Z,75.16
2017-04-14T11:27:51.379Z,74.38
2017-04-14T11:28:45.419Z,74.86
2017-04-14T11:29:39.540Z,75.01
2017-04-14T11:30:40.483Z,74.67
2017-04-14T11:31:40.500Z,74.19
2017-04-14T11:32:28.571Z,74.22
2017-04-14T11:33:17.682Z,74.64
2017-04-14T11:34:11.708Z,74.41
2017-04-14T11:35:00.676Z,74.34
2017-04-14T11:35:49.759Z,73.89
2017-04-14T11:36:43.791Z,73.09
2017-04-14T11:37:38.854Z,73.14
2017-04-14T11:38:32.906Z,73.46
2017-04-14T11:39:26.904Z,74.13
2017-04-14T11:40:21.023Z,74.68
2017-04-14T11:41:15.020Z,74.77
2017-04-14T11:42:04.084Z,74.47
2017-04-14T11:42:53.110Z,74.73
2017-04-14T11:43:47.222Z,74.43
2017-04-14T11:44:48.212Z,75.09
2017-04-14T11:45:37.189Z,75.10
2017-04-14T11:46:31.308Z,74.38
2017-04-14T11:47:20.358Z,74.02
2017-04-14T11:48:14.416Z,74.12
2017-04-14T11:49:15.478Z,74.43
2017-04-14T11:50:09.458Z,74.68
2017-04-14T11:50:58.876Z,73.61
2017-04-14T11:51:58.568Z,72.67
2017-04-14T11:52:58.670Z,73.13
2017-04-14T11:53:52.590Z,73.75
2017-04-14T11:54:46.693Z,73.33
2017-04-14T11:55:46.720Z,73.88